Terminal Aerodrome Forecast
Issued by NWS Charleston, WV

Current Version | Previous Version | Graphics & Text | Print | Product List | Glossary On
Versions: 1 2 3 4 5 6 7 8 9 10 11 12 13 14 15 16 17 18 19 20 21 22 23 24 25 26 27
000
FTUS41 KRLX 030216 AAA
TAFEKN
TAF AMD
KEKN 030216Z 0302/0324 VRB03KT P6SM BKN080
     FM030400 00000KT 6SM BR BKN080
     FM030600 00000KT 4SM BR BKN025
     FM030700 00000KT 2SM BR SCT001 BKN020
     FM030900 00000KT 1/2SM FG OVC001
     FM031300 00000KT 3SM BR SCT001 BKN080
     FM031400 00000KT 6SM HZ BKN010
     FM031600 00000KT P6SM BKN020
     FM031800 13003KT 5SM SHRA BR VCTS SCT008 OVC015CB
     FM032000 15004KT 2SM SHRA BR VCTS BKN006 OVC010CB=

USA.gov is the U.S. government's official web portal to all federal, state and local government web resources and services.